createdAt,value
2019-03-19T00:03:00.620Z,6.97
2019-03-19T00:06:02.537Z,7.60
2019-03-19T00:09:05.569Z,6.83
2019-03-19T00:12:07.632Z,8.47
2019-03-19T00:15:10.398Z,6.63
2019-03-19T00:18:12.543Z,6.37
2019-03-19T00:21:14.472Z,7.13
2019-03-19T00:24:16.460Z,7.47
2019-03-19T00:27:18.350Z,6.73
2019-03-19T00:30:20.224Z,6.60
2019-03-19T00:33:22.138Z,6.30
2019-03-19T00:36:24.608Z,7.50
2019-03-19T00:39:26.544Z,6.23
2019-03-19T00:42:28.526Z,5.97
2019-03-19T00:45:30.417Z,5.37
2019-03-19T00:48:32.339Z,6.13
2019-03-19T00:51:34.175Z,5.40
2019-03-19T00:54:36.210Z,5.43
2019-03-19T00:57:38.143Z,4.57
2019-03-19T01:00:40.135Z,4.47
2019-03-19T01:03:42.058Z,4.63
2019-03-19T01:06:44.010Z,5.00
2019-03-19T01:09:45.930Z,4.57
2019-03-19T01:12:47.818Z,5.00
2019-03-19T01:15:49.839Z,4.37
2019-03-19T01:18:51.707Z,5.00
2019-03-19T01:21:54.621Z,4.87
2019-03-19T01:24:56.557Z,4.53
2019-03-19T01:27:58.552Z,4.57
2019-03-19T01:31:00.454Z,4.67
2019-03-19T01:34:02.368Z,4.47
2019-03-19T01:37:04.282Z,4.67
2019-03-19T01:40:08.580Z,5.13
2019-03-19T01:43:10.490Z,5.23
2019-03-19T01:46:12.410Z,3.90
2019-03-19T01:49:14.497Z,4.63
2019-03-19T01:52:16.328Z,4.53
2019-03-19T01:55:18.414Z,4.67
2019-03-19T01:58:20.387Z,3.87
2019-03-19T02:01:22.580Z,4.17
2019-03-19T02:04:24.510Z,3.60
2019-03-19T02:07:26.504Z,3.87
2019-03-19T02:10:28.617Z,4.07
2019-03-19T02:13:30.495Z,4.33
2019-03-19T02:16:32.414Z,5.63
2019-03-19T02:19:34.347Z,4.80
2019-03-19T02:22:36.259Z,5.10
2019-03-19T02:25:38.261Z,4.13
2019-03-19T02:28:43.016Z,4.03
2019-03-19T02:31:44.935Z,3.70
2019-03-19T02:34:47.023Z,3.27
2019-03-19T02:37:48.953Z,3.63
2019-03-19T02:40:50.874Z,3.77
2019-03-19T02:43:52.956Z,4.10
2019-03-19T02:46:54.864Z,4.47
2019-03-19T02:49:56.826Z,3.33
2019-03-19T02:52:58.864Z,3.40
2019-03-19T02:56:00.945Z,3.80
2019-03-19T02:59:02.839Z,3.47
2019-03-19T03:02:04.785Z,4.03
2019-03-19T03:05:13.092Z,5.00
2019-03-19T03:08:15.095Z,4.33
2019-03-19T03:11:17.046Z,4.53
2019-03-19T03:14:19.581Z,4.70
2019-03-19T03:17:21.536Z,4.60
2019-03-19T03:20:23.421Z,5.37
2019-03-19T03:23:25.454Z,4.90
2019-03-19T03:26:27.398Z,3.67
2019-03-19T03:29:29.419Z,3.57
2019-03-19T03:32:31.296Z,3.87
2019-03-19T03:35:33.434Z,3.97
2019-03-19T03:38:35.986Z,4.73
2019-03-19T03:41:38.258Z,4.20
2019-03-19T03:44:40.119Z,3.90
2019-03-19T03:47:42.031Z,3.97
2019-03-19T03:50:43.903Z,4.30
2019-03-19T03:53:45.957Z,4.40
2019-03-19T03:57:01.395Z,3.73
2019-03-19T03:59:52.317Z,3.90
2019-03-19T04:02:54.275Z,5.43
2019-03-19T04:05:56.188Z,4.10
2019-03-19T04:08:58.077Z,3.50
2019-03-19T04:12:00.060Z,3.90
2019-03-19T04:15:02.037Z,4.17
2019-03-19T04:18:04.084Z,3.73
2019-03-19T04:21:06.070Z,3.77
2019-03-19T04:24:07.941Z,3.60
2019-03-19T04:27:15.787Z,4.03
2019-03-19T04:30:18.378Z,3.50
2019-03-19T04:33:20.377Z,3.83
2019-03-19T04:36:22.420Z,4.83
2019-03-19T04:39:24.450Z,5.13
2019-03-19T04:42:26.511Z,3.03
2019-03-19T04:45:28.395Z,4.07
2019-03-19T04:48:30.322Z,5.33
2019-03-19T04:51:32.203Z,4.27
2019-03-19T04:54:34.179Z,4.47
2019-03-19T04:57:36.284Z,4.60
2019-03-19T05:00:38.209Z,4.63
2019-03-19T05:03:40.150Z,4.03
2019-03-19T05:06:42.095Z,5.97
2019-03-19T05:09:44.117Z,5.27
2019-03-19T05:12:46.093Z,4.00
2019-03-19T05:15:47.968Z,4.57
2019-03-19T05:18:49.889Z,5.03
2019-03-19T05:21:51.887Z,4.37
2019-03-19T05:24:53.770Z,5.07
2019-03-19T05:27:55.795Z,4.73
2019-03-19T05:30:57.653Z,4.90
2019-03-19T05:33:59.642Z,6.40
2019-03-19T05:37:01.598Z,8.13
2019-03-19T05:40:09.985Z,5.27
2019-03-19T05:43:11.957Z,4.10
2019-03-19T05:46:13.877Z,4.80
2019-03-19T05:49:15.838Z,4.70
2019-03-19T05:52:17.797Z,3.93
2019-03-19T05:55:19.682Z,5.57
2019-03-19T05:58:21.683Z,4.97
2019-03-19T06:01:23.621Z,4.10
2019-03-19T06:04:25.797Z,5.40
2019-03-19T06:07:27.665Z,4.53
2019-03-19T06:10:29.585Z,5.43
2019-03-19T06:13:31.470Z,5.00
2019-03-19T06:16:33.365Z,4.17
2019-03-19T06:19:35.286Z,4.50
2019-03-19T06:22:37.178Z,5.93
2019-03-19T06:25:39.590Z,4.53
2019-03-19T06:28:41.542Z,5.83
2019-03-19T06:31:43.513Z,5.93
2019-03-19T06:34:45.372Z,5.83
2019-03-19T06:37:47.283Z,6.80
2019-03-19T06:40:49.147Z,6.77
2019-03-19T06:43:51.201Z,6.90
2019-03-19T06:46:53.343Z,6.37
2019-03-19T06:49:55.673Z,6.43
2019-03-19T06:52:57.591Z,6.43
2019-03-19T06:55:59.504Z,6.93
2019-03-19T06:59:01.668Z,7.20
2019-03-19T07:02:03.709Z,6.83
2019-03-19T07:05:07.954Z,5.23
2019-03-19T07:08:10.145Z,6.53
2019-03-19T07:11:12.057Z,6.60
2019-03-19T07:14:14.230Z,5.60
2019-03-19T07:17:16.238Z,5.13
2019-03-19T07:20:28.635Z,5.80
2019-03-19T07:23:30.527Z,4.90
2019-03-19T07:26:32.443Z,5.10
2019-03-19T07:29:34.459Z,6.03
2019-03-19T07:32:36.417Z,6.13
2019-03-19T07:35:38.369Z,4.33
2019-03-19T07:38:40.360Z,4.70
2019-03-19T07:41:42.498Z,4.23
2019-03-19T07:44:44.466Z,4.70
2019-03-19T07:47:47.235Z,4.37
2019-03-19T07:50:49.119Z,4.13
2019-03-19T07:53:51.027Z,3.63
2019-03-19T07:56:54.147Z,3.60
2019-03-19T07:59:56.456Z,4.07
2019-03-19T08:02:58.333Z,2.93
2019-03-19T08:06:00.269Z,3.57
2019-03-19T08:09:04.139Z,3.03
2019-03-19T08:12:06.215Z,3.07
2019-03-19T08:15:12.677Z,2.13
2019-03-19T08:18:14.644Z,2.00
2019-03-19T08:21:16.609Z,2.10
2019-03-19T08:24:18.608Z,2.13
2019-03-19T08:27:20.582Z,2.30
2019-03-19T08:30:25.069Z,3.63
2019-03-19T08:33:27.424Z,3.40
2019-03-19T08:36:29.296Z,1.90
2019-03-19T08:39:31.221Z,2.00
2019-03-19T08:42:33.110Z,2.03
2019-03-19T08:45:34.997Z,2.10
2019-03-19T08:48:37.774Z,2.70
2019-03-19T08:51:39.657Z,1.80
2019-03-19T08:54:41.656Z,2.30
2019-03-19T08:57:43.606Z,2.13
2019-03-19T09:00:46.993Z,2.20
2019-03-19T09:03:52.155Z,2.33
2019-03-19T09:06:54.122Z,2.57
2019-03-19T09:09:55.984Z,2.40
2019-03-19T09:12:57.915Z,2.63
2019-03-19T09:15:59.796Z,2.70
2019-03-19T09:19:01.750Z,2.30
2019-03-19T09:22:03.729Z,2.03
2019-03-19T09:25:07.448Z,2.87
2019-03-19T09:28:09.406Z,2.00
2019-03-19T09:31:11.350Z,2.30
2019-03-19T09:34:15.079Z,3.03
2019-03-19T09:37:18.198Z,2.30
2019-03-19T09:40:21.089Z,2.43
2019-03-19T09:43:23.017Z,2.20
2019-03-19T09:46:25.076Z,2.57
2019-03-19T09:49:27.063Z,3.00
2019-03-19T09:52:29.139Z,2.20
2019-03-19T09:55:31.113Z,2.87
2019-03-19T09:58:33.654Z,2.10
2019-03-19T10:01:35.716Z,1.90
2019-03-19T10:04:37.718Z,2.83
2019-03-19T10:07:39.901Z,2.47
2019-03-19T10:10:41.863Z,3.00
2019-03-19T10:13:44.060Z,2.77
2019-03-19T10:16:45.957Z,2.50
2019-03-19T10:19:47.868Z,2.43
2019-03-19T10:22:50.191Z,1.50
2019-03-19T10:25:52.330Z,2.33
2019-03-19T10:28:54.216Z,3.13
2019-03-19T10:31:56.244Z,3.03
2019-03-19T10:34:58.184Z,4.10
2019-03-19T10:38:00.238Z,2.50
2019-03-19T10:41:02.136Z,4.23
2019-03-19T10:44:04.233Z,3.70
2019-03-19T10:47:06.190Z,4.10
2019-03-19T10:50:11.716Z,3.80
2019-03-19T10:53:13.677Z,4.97
2019-03-19T10:56:15.626Z,4.13
2019-03-19T10:59:17.587Z,3.77
2019-03-19T11:02:19.897Z,4.13
2019-03-19T11:05:23.206Z,4.47
2019-03-19T11:08:25.225Z,2.23
2019-03-19T11:11:27.118Z,3.23
2019-03-19T11:14:29.026Z,3.60
2019-03-19T11:17:30.943Z,3.27
2019-03-19T11:20:32.947Z,3.70
2019-03-19T11:23:34.766Z,2.77
2019-03-19T11:26:37.031Z,3.13
2019-03-19T11:29:38.919Z,10.13
2019-03-19T11:32:40.911Z,6.50
2019-03-19T11:35:42.919Z,6.30
2019-03-19T11:38:45.117Z,9.10
2019-03-19T11:41:48.200Z,3.77
2019-03-19T11:44:50.151Z,5.50
2019-03-19T11:47:52.148Z,2.93
2019-03-19T11:50:54.060Z,3.13
2019-03-19T11:53:55.963Z,2.90
2019-03-19T11:56:57.918Z,2.97
2019-03-19T12:00:10.448Z,2.83
2019-03-19T12:03:14.897Z,3.23
2019-03-19T12:06:09.802Z,3.27
2019-03-19T12:09:11.671Z,3.30
2019-03-19T12:12:13.700Z,3.23
2019-03-19T12:15:15.651Z,3.87
2019-03-19T12:18:17.647Z,7.37
2019-03-19T12:21:19.549Z,96.73
2019-03-19T12:24:21.541Z,77.50
2019-03-19T12:27:23.531Z,40.40
2019-03-19T12:30:28.252Z,6.83
2019-03-19T12:33:40.112Z,15.57
2019-03-19T12:36:34.129Z,4.73
2019-03-19T12:39:36.002Z,3.63
2019-03-19T12:42:37.956Z,3.27
2019-03-19T12:45:39.849Z,2.93
2019-03-19T12:48:41.992Z,2.17
2019-03-19T12:51:44.085Z,10.47
2019-03-19T12:54:45.954Z,3.43
2019-03-19T12:57:47.968Z,2.63
2019-03-19T13:00:49.901Z,4.03
2019-03-19T13:03:52.078Z,3.00
2019-03-19T13:06:54.316Z,2.17
2019-03-19T13:09:56.360Z,3.43
2019-03-19T13:12:58.270Z,7.93
2019-03-19T13:16:00.224Z,3.93
2019-03-19T13:19:02.150Z,6.13
2019-03-19T13:22:04.254Z,3.60
2019-03-19T13:25:11.642Z,2.20
2019-03-19T13:28:13.685Z,1.90
2019-03-19T13:31:15.782Z,2.00
2019-03-19T13:34:18.086Z,2.30
2019-03-19T13:37:20.279Z,4.47
2019-03-19T13:40:22.255Z,7.00
2019-03-19T13:43:24.309Z,2.63
2019-03-19T13:46:26.299Z,2.77
2019-03-19T13:49:28.346Z,3.43
2019-03-19T13:52:30.274Z,1.67
2019-03-19T13:55:32.328Z,2.17
2019-03-19T13:58:34.258Z,2.80
2019-03-19T14:01:36.343Z,1.83
2019-03-19T14:04:38.541Z,2.53
2019-03-19T14:07:40.631Z,6.90
2019-03-19T14:10:42.474Z,4.13
2019-03-19T14:13:44.568Z,2.57
2019-03-19T14:16:46.481Z,4.17
2019-03-19T14:19:48.616Z,3.53
2019-03-19T14:22:50.542Z,2.80
2019-03-19T14:25:52.421Z,3.60
2019-03-19T14:28:54.297Z,4.20
2019-03-19T14:31:56.524Z,4.93
2019-03-19T14:34:58.663Z,4.10
2019-03-19T14:38:01.375Z,6.00
2019-03-19T14:41:03.430Z,6.57
2019-03-19T14:44:05.391Z,5.83
2019-03-19T14:47:07.471Z,35.40
2019-03-19T14:50:12.045Z,32.27
2019-03-19T14:53:13.996Z,4.60
2019-03-19T14:56:16.002Z,7.90
2019-03-19T14:59:17.990Z,24.40
2019-03-19T15:02:20.966Z,5.07
2019-03-19T15:05:23.058Z,3.77
2019-03-19T15:08:25.581Z,4.60
2019-03-19T15:11:27.841Z,3.90
2019-03-19T15:14:29.796Z,3.27
2019-03-19T15:17:31.861Z,4.13
2019-03-19T15:20:34.975Z,5.30
2019-03-19T15:23:37.075Z,7.30
2019-03-19T15:26:40.428Z,7.60
2019-03-19T15:29:42.434Z,4.27
2019-03-19T15:32:45.099Z,6.47
2019-03-19T15:35:47.193Z,6.60
2019-03-19T15:38:49.124Z,4.83
2019-03-19T15:41:51.074Z,4.53
2019-03-19T15:44:53.072Z,4.83
2019-03-19T15:47:55.182Z,3.67
2019-03-19T15:50:57.210Z,4.47
2019-03-19T15:53:59.133Z,3.50
2019-03-19T15:57:01.018Z,3.00
2019-03-19T16:00:06.870Z,2.87
2019-03-19T16:03:08.768Z,4.37
2019-03-19T16:06:10.975Z,3.13
2019-03-19T16:09:13.269Z,6.20
2019-03-19T16:12:15.494Z,4.17
2019-03-19T16:15:21.042Z,3.50
2019-03-19T16:18:23.717Z,3.43
2019-03-19T16:21:25.606Z,4.10
2019-03-19T16:24:27.886Z,4.70
2019-03-19T16:27:29.863Z,4.77
2019-03-19T16:30:31.985Z,5.57
2019-03-19T16:33:34.829Z,4.03
2019-03-19T16:36:37.028Z,4.00
2019-03-19T16:39:39.109Z,3.87
2019-03-19T16:42:42.275Z,5.00
2019-03-19T16:45:44.884Z,3.23
2019-03-19T16:48:46.952Z,3.47
2019-03-19T16:51:49.280Z,3.43
2019-03-19T16:54:51.367Z,4.00
2019-03-19T16:57:53.564Z,4.67
2019-03-19T17:00:55.595Z,3.97
2019-03-19T17:03:57.575Z,4.47
2019-03-19T17:06:59.751Z,3.43
2019-03-19T17:10:03.282Z,4.10
2019-03-19T17:13:05.318Z,7.93
2019-03-19T17:16:07.353Z,12.17
2019-03-19T17:19:09.508Z,8.70
2019-03-19T17:22:11.586Z,7.73
2019-03-19T17:25:21.161Z,9.17
2019-03-19T17:28:24.559Z,8.10
2019-03-19T17:31:26.621Z,6.10
2019-03-19T17:34:30.750Z,6.90
2019-03-19T17:37:36.507Z,5.73
2019-03-19T17:40:41.596Z,5.47
2019-03-19T17:43:43.919Z,8.30
2019-03-19T17:46:45.831Z,8.73
2019-03-19T17:49:50.580Z,17.30
2019-03-19T17:52:53.629Z,33.77
2019-03-19T17:55:55.716Z,28.20
2019-03-19T17:58:57.694Z,19.20
2019-03-19T18:02:01.413Z,43.07
2019-03-19T18:05:06.041Z,170.63
2019-03-19T18:08:09.111Z,144.80
2019-03-19T18:11:13.276Z,81.70
2019-03-19T18:14:18.625Z,33.27
2019-03-19T18:17:20.591Z,19.37
2019-03-19T18:20:22.504Z,15.37
2019-03-19T18:23:26.342Z,12.20
2019-03-19T18:26:28.213Z,14.53
2019-03-19T18:29:36.163Z,19.47
2019-03-19T18:32:38.202Z,14.40
2019-03-19T18:35:41.993Z,14.77
2019-03-19T18:38:44.067Z,14.47
2019-03-19T18:41:50.377Z,13.43
2019-03-19T18:44:54.466Z,12.27
2019-03-19T18:47:56.487Z,12.90
2019-03-19T18:50:58.860Z,19.33
2019-03-19T18:54:00.750Z,18.37
2019-03-19T18:57:03.357Z,43.53
2019-03-19T19:00:11.529Z,31.50
2019-03-19T19:03:15.847Z,27.20
2019-03-19T19:06:17.729Z,27.73
2019-03-19T19:09:21.145Z,27.87
2019-03-19T19:12:24.632Z,24.63
2019-03-19T19:15:27.738Z,22.87
2019-03-19T19:18:29.683Z,19.60
2019-03-19T19:21:32.777Z,17.43
2019-03-19T19:24:34.769Z,16.77
2019-03-19T19:27:36.712Z,16.27
2019-03-19T19:30:41.852Z,16.37
2019-03-19T19:33:43.865Z,21.47
2019-03-19T19:36:47.579Z,19.03
2019-03-19T19:39:53.904Z,22.07
2019-03-19T19:42:57.841Z,25.27
2019-03-19T19:45:59.810Z,24.57
2019-03-19T19:49:05.352Z,22.37
2019-03-19T19:52:13.740Z,22.93
2019-03-19T19:55:16.274Z,22.77
2019-03-19T19:58:19.276Z,21.93
2019-03-19T20:01:21.837Z,23.50
2019-03-19T20:04:23.739Z,25.20
2019-03-19T20:07:25.895Z,23.83
2019-03-19T20:10:32.514Z,25.33
2019-03-19T20:13:35.038Z,23.87
2019-03-19T20:16:37.190Z,25.07
2019-03-19T20:19:40.455Z,24.60
2019-03-19T20:22:44.707Z,23.30
2019-03-19T20:25:46.423Z,23.83
2019-03-19T20:28:50.200Z,24.60
2019-03-19T20:31:52.174Z,26.63
2019-03-19T20:34:54.073Z,25.80
2019-03-19T20:37:56.257Z,26.77
2019-03-19T20:41:00.514Z,26.67
2019-03-19T20:44:05.764Z,27.87
2019-03-19T20:47:07.877Z,25.33
2019-03-19T20:50:16.068Z,27.07
2019-03-19T20:53:19.063Z,25.23
2019-03-19T20:56:22.825Z,25.83
2019-03-19T20:59:25.718Z,25.10
2019-03-19T21:02:28.174Z,24.83
2019-03-19T21:05:32.417Z,26.77
2019-03-19T21:08:34.495Z,26.73
2019-03-19T21:11:37.162Z,26.27
2019-03-19T21:14:39.136Z,28.53
2019-03-19T21:17:41.778Z,31.20
2019-03-19T21:20:43.724Z,29.37
2019-03-19T21:23:46.037Z,31.27
2019-03-19T21:26:49.601Z,31.37
2019-03-19T21:29:52.901Z,35.57
2019-03-19T21:32:54.852Z,35.80
2019-03-19T21:35:58.035Z,35.80
2019-03-19T21:38:59.893Z,35.97
2019-03-19T21:42:01.919Z,37.70
2019-03-19T21:45:09.794Z,35.23
2019-03-19T21:48:14.709Z,35.90
2019-03-19T21:51:16.621Z,34.60
2019-03-19T21:54:18.611Z,35.40
2019-03-19T21:57:20.510Z,34.67
2019-03-19T22:00:23.674Z,39.37
2019-03-19T22:03:25.674Z,36.13
2019-03-19T22:06:27.521Z,35.63
2019-03-19T22:09:29.538Z,36.33
2019-03-19T22:12:31.686Z,38.80
2019-03-19T22:15:33.786Z,38.40
2019-03-19T22:18:35.701Z,39.43
2019-03-19T22:21:37.578Z,42.23
2019-03-19T22:24:39.499Z,40.10
2019-03-19T22:27:41.634Z,43.60
2019-03-19T22:30:43.579Z,44.93
2019-03-19T22:33:45.461Z,42.17
2019-03-19T22:36:47.391Z,35.47
2019-03-19T22:39:49.335Z,37.90
2019-03-19T22:42:51.482Z,41.20
2019-03-19T22:45:53.396Z,39.13
2019-03-19T22:48:55.358Z,37.53
2019-03-19T22:51:57.200Z,39.77
2019-03-19T22:54:59.238Z,40.90
2019-03-19T22:58:01.092Z,39.83
2019-03-19T23:01:03.240Z,37.67
2019-03-19T23:04:06.950Z,35.63
2019-03-19T23:07:08.900Z,33.03
2019-03-19T23:10:10.791Z,30.93
2019-03-19T23:13:14.036Z,27.90
2019-03-19T23:16:16.018Z,29.90
2019-03-19T23:19:17.989Z,29.37
2019-03-19T23:22:19.870Z,27.03
2019-03-19T23:25:21.756Z,24.03
2019-03-19T23:28:23.672Z,22.93
2019-03-19T23:31:25.647Z,24.23
2019-03-19T23:34:37.887Z,23.00
2019-03-19T23:37:31.379Z,24.07
2019-03-19T23:40:33.349Z,24.63
2019-03-19T23:43:36.426Z,24.80
2019-03-19T23:46:38.418Z,22.17
2019-03-19T23:49:40.389Z,22.47
2019-03-19T23:52:42.377Z,20.87
2019-03-19T23:55:44.354Z,24.17
2019-03-19T23:58:46.260Z,22.07
